sensor_id;sensor_type;location;lat;lon;timestamp;P1;durP1;ratioP1;P2;durP2;ratioP2
60665;SDS011;59128;44.642;21.188;2022-12-07T00:00:05;9.93;;;7.70;;
60665;SDS011;59128;44.642;21.188;2022-12-07T00:02:31;21.87;;;16.23;;
60665;SDS011;59128;44.642;21.188;2022-12-07T00:04:57;28.88;;;20.35;;
60665;SDS011;59128;44.642;21.188;2022-12-07T00:07:23;29.25;;;21.25;;
60665;SDS011;59128;44.642;21.188;2022-12-07T00:09:49;31.08;;;23.17;;
60665;SDS011;59128;44.642;21.188;2022-12-07T00:12:15;35.83;;;26.42;;
60665;SDS011;59128;44.642;21.188;2022-12-07T00:14:41;21.45;;;16.92;;
60665;SDS011;59128;44.642;21.188;2022-12-07T00:17:07;28.15;;;21.83;;
60665;SDS011;59128;44.642;21.188;2022-12-07T00:19:33;17.60;;;13.75;;
60665;SDS011;59128;44.642;21.188;2022-12-07T00:21:59;27.30;;;20.80;;
60665;SDS011;59128;44.642;21.188;2022-12-07T00:24:25;24.90;;;19.40;;
60665;SDS011;59128;44.642;21.188;2022-12-07T00:26:51;14.20;;;10.60;;
60665;SDS011;59128;44.642;21.188;2022-12-07T00:29:19;14.87;;;9.97;;
60665;SDS011;59128;44.642;21.188;2022-12-07T00:31:46;7.95;;;6.57;;
60665;SDS011;59128;44.642;21.188;2022-12-07T00:34:13;17.50;;;11.45;;
60665;SDS011;59128;44.642;21.188;2022-12-07T00:36:39;7.97;;;6.20;;
60665;SDS011;59128;44.642;21.188;2022-12-07T00:39:06;9.68;;;7.68;;
60665;SDS011;59128;44.642;21.188;2022-12-07T00:41:32;16.60;;;12.40;;
60665;SDS011;59128;44.642;21.188;2022-12-07T00:43:58;57.35;;;40.45;;
60665;SDS011;59128;44.642;21.188;2022-12-07T00:46:24;35.95;;;25.17;;
60665;SDS011;59128;44.642;21.188;2022-12-07T00:48:51;38.38;;;27.05;;
60665;SDS011;59128;44.642;21.188;2022-12-07T00:51:17;28.98;;;21.00;;
60665;SDS011;59128;44.642;21.188;2022-12-07T00:53:44;14.27;;;11.30;;
60665;SDS011;59128;44.642;21.188;2022-12-07T00:56:14;11.95;;;9.82;;
60665;SDS011;59128;44.642;21.188;2022-12-07T00:58:41;14.05;;;10.40;;
60665;SDS011;59128;44.642;21.188;2022-12-07T01:01:08;14.73;;;11.10;;
60665;SDS011;59128;44.642;21.188;2022-12-07T01:03:34;26.38;;;18.25;;
60665;SDS011;59128;44.642;21.188;2022-12-07T01:06:00;38.55;;;26.55;;
60665;SDS011;59128;44.642;21.188;2022-12-07T01:08:27;37.53;;;25.30;;
60665;SDS011;59128;44.642;21.188;2022-12-07T01:13:26;53.95;;;38.03;;
60665;SDS011;59128;44.642;21.188;2022-12-07T01:15:55;31.63;;;24.50;;
60665;SDS011;59128;44.642;21.188;2022-12-07T01:18:21;22.48;;;18.08;;
60665;SDS011;59128;44.642;21.188;2022-12-07T01:20:56;20.13;;;15.70;;
60665;SDS011;59128;44.642;21.188;2022-12-07T01:23:22;17.55;;;13.85;;
60665;SDS011;59128;44.642;21.188;2022-12-07T01:25:58;11.02;;;9.10;;
60665;SDS011;59128;44.642;21.188;2022-12-07T01:28:24;10.47;;;8.10;;
60665;SDS011;59128;44.642;21.188;2022-12-07T01:31:04;10.05;;;7.43;;
60665;SDS011;59128;44.642;21.188;2022-12-07T01:33:31;6.75;;;5.28;;
60665;SDS011;59128;44.642;21.188;2022-12-07T01:36:05;6.90;;;5.13;;
60665;SDS011;59128;44.642;21.188;2022-12-07T01:38:31;7.80;;;5.40;;
60665;SDS011;59128;44.642;21.188;2022-12-07T01:40:57;5.78;;;4.93;;
60665;SDS011;59128;44.642;21.188;2022-12-07T01:43:24;23.95;;;19.45;;
60665;SDS011;59128;44.642;21.188;2022-12-07T01:45:51;8.60;;;6.57;;
60665;SDS011;59128;44.642;21.188;2022-12-07T01:48:18;6.43;;;5.50;;
60665;SDS011;59128;44.642;21.188;2022-12-07T01:50:46;7.80;;;6.38;;
60665;SDS011;59128;44.642;21.188;2022-12-07T01:53:13;8.30;;;6.85;;
60665;SDS011;59128;44.642;21.188;2022-12-07T01:55:40;5.57;;;4.65;;
60665;SDS011;59128;44.642;21.188;2022-12-07T01:58:07;5.65;;;4.80;;
60665;SDS011;59128;44.642;21.188;2022-12-07T02:00:33;5.60;;;5.03;;
60665;SDS011;59128;44.642;21.188;2022-12-07T02:03:03;4.68;;;3.95;;
60665;SDS011;59128;44.642;21.188;2022-12-07T02:05:30;7.10;;;5.83;;
60665;SDS011;59128;44.642;21.188;2022-12-07T02:07:57;4.88;;;4.38;;
60665;SDS011;59128;44.642;21.188;2022-12-07T02:10:24;4.37;;;3.80;;
60665;SDS011;59128;44.642;21.188;2022-12-07T02:12:55;6.13;;;4.97;;
60665;SDS011;59128;44.642;21.188;2022-12-07T02:15:22;5.77;;;4.60;;
60665;SDS011;59128;44.642;21.188;2022-12-07T02:20:28;4.80;;;4.30;;
60665;SDS011;59128;44.642;21.188;2022-12-07T02:25:33;3.70;;;3.40;;
60665;SDS011;59128;44.642;21.188;2022-12-07T02:28:06;4.20;;;3.80;;
60665;SDS011;59128;44.642;21.188;2022-12-07T02:30:35;4.35;;;3.75;;
60665;SDS011;59128;44.642;21.188;2022-12-07T02:33:28;4.05;;;3.65;;
60665;SDS011;59128;44.642;21.188;2022-12-07T02:35:59;5.03;;;3.83;;
60665;SDS011;59128;44.642;21.188;2022-12-07T02:38:35;4.20;;;3.50;;
60665;SDS011;59128;44.642;21.188;2022-12-07T02:43:39;16.42;;;12.02;;
60665;SDS011;59128;44.642;21.188;2022-12-07T02:46:07;14.18;;;11.05;;
60665;SDS011;59128;44.642;21.188;2022-12-07T02:48:34;20.83;;;16.15;;
60665;SDS011;59128;44.642;21.188;2022-12-07T02:51:01;19.23;;;15.00;;
60665;SDS011;59128;44.642;21.188;2022-12-07T02:56:01;5.47;;;4.68;;
60665;SDS011;59128;44.642;21.188;2022-12-07T03:03:39;5.00;;;4.30;;
60665;SDS011;59128;44.642;21.188;2022-12-07T03:06:30;5.03;;;4.40;;
60665;SDS011;59128;44.642;21.188;2022-12-07T03:11:25;4.90;;;4.20;;
60665;SDS011;59128;44.642;21.188;2022-12-07T03:16:35;5.30;;;4.80;;
60665;SDS011;59128;44.642;21.188;2022-12-07T03:19:15;7.00;;;6.30;;
60665;SDS011;59128;44.642;21.188;2022-12-07T03:21:44;5.82;;;5.15;;
60665;SDS011;59128;44.642;21.188;2022-12-07T03:24:14;6.32;;;5.50;;
60665;SDS011;59128;44.642;21.188;2022-12-07T03:27:14;12.15;;;10.52;;
60665;SDS011;59128;44.642;21.188;2022-12-07T03:29:54;5.80;;;5.18;;
60665;SDS011;59128;44.642;21.188;2022-12-07T03:34:46;4.85;;;4.35;;
60665;SDS011;59128;44.642;21.188;2022-12-07T03:37:22;4.30;;;3.90;;
60665;SDS011;59128;44.642;21.188;2022-12-07T03:40:15;5.90;;;4.43;;
60665;SDS011;59128;44.642;21.188;2022-12-07T03:42:38;6.10;;;5.30;;
60665;SDS011;59128;44.642;21.188;2022-12-07T03:45:04;6.93;;;5.45;;
60665;SDS011;59128;44.642;21.188;2022-12-07T03:47:33;6.95;;;6.05;;
60665;SDS011;59128;44.642;21.188;2022-12-07T03:52:34;7.50;;;6.00;;
60665;SDS011;59128;44.642;21.188;2022-12-07T03:57:37;5.88;;;5.28;;
60665;SDS011;59128;44.642;21.188;2022-12-07T04:00:05;5.95;;;5.10;;
60665;SDS011;59128;44.642;21.188;2022-12-07T04:02:32;6.38;;;5.57;;
60665;SDS011;59128;44.642;21.188;2022-12-07T04:04:58;5.97;;;5.38;;
60665;SDS011;59128;44.642;21.188;2022-12-07T04:07:25;5.93;;;5.10;;
60665;SDS011;59128;44.642;21.188;2022-12-07T04:09:51;5.80;;;4.90;;
60665;SDS011;59128;44.642;21.188;2022-12-07T04:12:19;5.25;;;4.70;;
60665;SDS011;59128;44.642;21.188;2022-12-07T04:14:45;4.55;;;4.13;;
60665;SDS011;59128;44.642;21.188;2022-12-07T04:17:11;5.30;;;4.78;;
60665;SDS011;59128;44.642;21.188;2022-12-07T04:19:37;4.90;;;4.40;;
60665;SDS011;59128;44.642;21.188;2022-12-07T04:22:04;4.72;;;4.32;;
60665;SDS011;59128;44.642;21.188;2022-12-07T04:24:30;5.40;;;4.90;;
60665;SDS011;59128;44.642;21.188;2022-12-07T04:26:56;5.78;;;5.10;;
60665;SDS011;59128;44.642;21.188;2022-12-07T04:29:23;7.03;;;6.32;;
60665;SDS011;59128;44.642;21.188;2022-12-07T04:31:49;6.82;;;4.72;;
60665;SDS011;59128;44.642;21.188;2022-12-07T04:34:15;7.38;;;5.63;;
60665;SDS011;59128;44.642;21.188;2022-12-07T04:36:42;6.97;;;5.60;;
60665;SDS011;59128;44.642;21.188;2022-12-07T04:39:13;6.53;;;5.38;;
60665;SDS011;59128;44.642;21.188;2022-12-07T04:41:42;6.80;;;5.65;;
60665;SDS011;59128;44.642;21.188;2022-12-07T04:44:08;6.03;;;5.18;;
60665;SDS011;59128;44.642;21.188;2022-12-07T04:46:34;5.77;;;5.20;;
60665;SDS011;59128;44.642;21.188;2022-12-07T04:49:00;6.53;;;5.43;;
60665;SDS011;59128;44.642;21.188;2022-12-07T04:51:28;5.88;;;4.80;;
60665;SDS011;59128;44.642;21.188;2022-12-07T04:53:54;5.00;;;4.50;;
60665;SDS011;59128;44.642;21.188;2022-12-07T04:56:21;5.57;;;4.65;;
60665;SDS011;59128;44.642;21.188;2022-12-07T04:58:47;5.40;;;4.90;;
60665;SDS011;59128;44.642;21.188;2022-12-07T05:01:14;6.00;;;5.40;;
60665;SDS011;59128;44.642;21.188;2022-12-07T05:03:41;5.55;;;5.05;;
60665;SDS011;59128;44.642;21.188;2022-12-07T05:06:07;5.78;;;5.20;;
60665;SDS011;59128;44.642;21.188;2022-12-07T05:08:33;6.07;;;5.45;;
60665;SDS011;59128;44.642;21.188;2022-12-07T05:11:00;5.63;;;4.90;;
60665;SDS011;59128;44.642;21.188;2022-12-07T05:13:27;6.03;;;5.43;;
60665;SDS011;59128;44.642;21.188;2022-12-07T05:15:53;11.52;;;8.45;;
60665;SDS011;59128;44.642;21.188;2022-12-07T05:18:19;11.80;;;8.43;;
60665;SDS011;59128;44.642;21.188;2022-12-07T05:20:45;11.32;;;8.30;;
60665;SDS011;59128;44.642;21.188;2022-12-07T05:23:11;13.65;;;9.25;;
60665;SDS011;59128;44.642;21.188;2022-12-07T05:25:37;12.48;;;8.38;;
60665;SDS011;59128;44.642;21.188;2022-12-07T05:28:04;14.70;;;10.50;;
60665;SDS011;59128;44.642;21.188;2022-12-07T05:30:30;12.55;;;9.25;;
60665;SDS011;59128;44.642;21.188;2022-12-07T05:32:56;9.77;;;8.03;;
60665;SDS011;59128;44.642;21.188;2022-12-07T05:35:22;7.20;;;6.50;;
60665;SDS011;59128;44.642;21.188;2022-12-07T05:37:48;7.18;;;6.47;;
60665;SDS011;59128;44.642;21.188;2022-12-07T05:40:18;9.47;;;6.40;;
60665;SDS011;59128;44.642;21.188;2022-12-07T05:42:44;9.38;;;6.72;;
60665;SDS011;59128;44.642;21.188;2022-12-07T05:45:10;6.47;;;5.78;;
60665;SDS011;59128;44.642;21.188;2022-12-07T05:47:37;4.47;;;4.07;;
60665;SDS011;59128;44.642;21.188;2022-12-07T05:50:03;4.25;;;3.85;;
60665;SDS011;59128;44.642;21.188;2022-12-07T05:52:30;6.03;;;5.43;;
60665;SDS011;59128;44.642;21.188;2022-12-07T05:54:56;8.50;;;6.40;;
60665;SDS011;59128;44.642;21.188;2022-12-07T05:57:22;6.15;;;5.55;;
60665;SDS011;59128;44.642;21.188;2022-12-07T05:59:48;5.32;;;4.82;;
60665;SDS011;59128;44.642;21.188;2022-12-07T06:02:14;6.10;;;5.50;;
60665;SDS011;59128;44.642;21.188;2022-12-07T06:04:42;8.25;;;6.32;;
60665;SDS011;59128;44.642;21.188;2022-12-07T06:07:08;7.00;;;6.30;;
60665;SDS011;59128;44.642;21.188;2022-12-07T06:09:35;7.45;;;5.95;;
60665;SDS011;59128;44.642;21.188;2022-12-07T06:12:01;8.68;;;7.05;;
60665;SDS011;59128;44.642;21.188;2022-12-07T06:14:46;14.15;;;11.55;;
60665;SDS011;59128;44.642;21.188;2022-12-07T06:17:13;21.23;;;17.97;;
60665;SDS011;59128;44.642;21.188;2022-12-07T06:19:39;18.67;;;16.77;;
60665;SDS011;59128;44.642;21.188;2022-12-07T06:22:05;13.82;;;12.63;;
60665;SDS011;59128;44.642;21.188;2022-12-07T06:24:32;21.45;;;19.42;;
60665;SDS011;59128;44.642;21.188;2022-12-07T06:26:58;21.10;;;19.00;;
60665;SDS011;59128;44.642;21.188;2022-12-07T06:29:24;12.25;;;11.15;;
60665;SDS011;59128;44.642;21.188;2022-12-07T06:31:51;12.70;;;11.52;;
60665;SDS011;59128;44.642;21.188;2022-12-07T06:34:18;12.13;;;10.85;;
60665;SDS011;59128;44.642;21.188;2022-12-07T06:36:44;12.43;;;11.13;;
60665;SDS011;59128;44.642;21.188;2022-12-07T06:39:12;12.20;;;10.20;;
60665;SDS011;59128;44.642;21.188;2022-12-07T06:41:38;10.02;;;8.68;;
60665;SDS011;59128;44.642;21.188;2022-12-07T06:44:05;10.40;;;8.77;;
60665;SDS011;59128;44.642;21.188;2022-12-07T06:46:31;9.10;;;7.70;;
60665;SDS011;59128;44.642;21.188;2022-12-07T06:48:58;10.90;;;8.77;;
60665;SDS011;59128;44.642;21.188;2022-12-07T06:51:24;10.82;;;9.15;;
60665;SDS011;59128;44.642;21.188;2022-12-07T06:53:50;10.95;;;9.38;;
60665;SDS011;59128;44.642;21.188;2022-12-07T06:56:16;8.80;;;7.90;;
60665;SDS011;59128;44.642;21.188;2022-12-07T06:58:42;6.88;;;6.20;;
60665;SDS011;59128;44.642;21.188;2022-12-07T07:01:12;6.50;;;5.85;;
60665;SDS011;59128;44.642;21.188;2022-12-07T07:03:38;6.80;;;6.10;;
60665;SDS011;59128;44.642;21.188;2022-12-07T07:06:05;9.48;;;8.57;;
60665;SDS011;59128;44.642;21.188;2022-12-07T07:08:32;12.07;;;10.90;;
60665;SDS011;59128;44.642;21.188;2022-12-07T07:10:58;13.27;;;12.00;;
60665;SDS011;59128;44.642;21.188;2022-12-07T07:13:24;65.90;;;58.67;;
60665;SDS011;59128;44.642;21.188;2022-12-07T07:15:50;19.63;;;17.38;;
60665;SDS011;59128;44.642;21.188;2022-12-07T07:18:16;13.82;;;12.40;;
60665;SDS011;59128;44.642;21.188;2022-12-07T07:20:42;16.85;;;14.15;;
60665;SDS011;59128;44.642;21.188;2022-12-07T07:23:09;13.25;;;10.88;;
60665;SDS011;59128;44.642;21.188;2022-12-07T07:25:35;9.35;;;8.20;;
60665;SDS011;59128;44.642;21.188;2022-12-07T07:28:01;8.52;;;7.57;;
60665;SDS011;59128;44.642;21.188;2022-12-07T07:30:27;8.65;;;7.72;;
60665;SDS011;59128;44.642;21.188;2022-12-07T07:33:00;14.85;;;11.45;;
60665;SDS011;59128;44.642;21.188;2022-12-07T07:35:27;20.85;;;15.73;;
60665;SDS011;59128;44.642;21.188;2022-12-07T07:37:53;26.65;;;18.33;;
60665;SDS011;59128;44.642;21.188;2022-12-07T07:40:19;20.00;;;15.00;;
60665;SDS011;59128;44.642;21.188;2022-12-07T07:42:49;17.83;;;13.60;;
60665;SDS011;59128;44.642;21.188;2022-12-07T07:45:15;19.55;;;15.27;;
60665;SDS011;59128;44.642;21.188;2022-12-07T07:47:41;14.47;;;12.10;;
60665;SDS011;59128;44.642;21.188;2022-12-07T07:50:08;14.52;;;11.98;;
60665;SDS011;59128;44.642;21.188;2022-12-07T07:52:34;15.52;;;12.70;;
60665;SDS011;59128;44.642;21.188;2022-12-07T07:55:00;19.35;;;16.17;;
60665;SDS011;59128;44.642;21.188;2022-12-07T07:57:26;27.38;;;21.23;;
60665;SDS011;59128;44.642;21.188;2022-12-07T07:59:52;23.63;;;18.17;;
60665;SDS011;59128;44.642;21.188;2022-12-07T08:02:19;26.67;;;18.77;;
60665;SDS011;59128;44.642;21.188;2022-12-07T08:04:45;20.60;;;15.57;;
60665;SDS011;59128;44.642;21.188;2022-12-07T08:07:11;16.25;;;13.05;;
60665;SDS011;59128;44.642;21.188;2022-12-07T08:09:38;25.33;;;17.65;;
60665;SDS011;59128;44.642;21.188;2022-12-07T08:12:04;23.08;;;15.93;;
60665;SDS011;59128;44.642;21.188;2022-12-07T08:14:30;19.55;;;14.38;;
60665;SDS011;59128;44.642;21.188;2022-12-07T08:16:56;17.33;;;13.13;;
60665;SDS011;59128;44.642;21.188;2022-12-07T08:19:22;19.75;;;14.27;;
60665;SDS011;59128;44.642;21.188;2022-12-07T08:21:48;18.25;;;13.75;;
60665;SDS011;59128;44.642;21.188;2022-12-07T08:24:14;21.20;;;14.82;;
60665;SDS011;59128;44.642;21.188;2022-12-07T08:26:41;13.98;;;10.77;;
60665;SDS011;59128;44.642;21.188;2022-12-07T08:29:07;14.77;;;11.98;;
60665;SDS011;59128;44.642;21.188;2022-12-07T08:31:33;21.95;;;18.33;;
60665;SDS011;59128;44.642;21.188;2022-12-07T08:33:59;24.83;;;19.85;;
60665;SDS011;59128;44.642;21.188;2022-12-07T08:36:25;15.52;;;12.35;;
60665;SDS011;59128;44.642;21.188;2022-12-07T08:38:52;14.60;;;12.43;;
60665;SDS011;59128;44.642;21.188;2022-12-07T08:41:18;23.00;;;18.05;;
60665;SDS011;59128;44.642;21.188;2022-12-07T08:43:44;18.65;;;16.70;;
60665;SDS011;59128;44.642;21.188;2022-12-07T08:48:38;39.73;;;31.80;;
60665;SDS011;59128;44.642;21.188;2022-12-07T08:51:05;38.28;;;30.85;;
60665;SDS011;59128;44.642;21.188;2022-12-07T08:53:32;22.90;;;20.48;;
60665;SDS011;59128;44.642;21.188;2022-12-07T08:55:59;29.17;;;26.08;;
60665;SDS011;59128;44.642;21.188;2022-12-07T08:58:25;22.92;;;20.50;;
60665;SDS011;59128;44.642;21.188;2022-12-07T09:00:52;21.90;;;19.80;;
60665;SDS011;59128;44.642;21.188;2022-12-07T09:03:18;25.20;;;22.48;;
60665;SDS011;59128;44.642;21.188;2022-12-07T09:05:44;19.60;;;17.05;;
60665;SDS011;59128;44.642;21.188;2022-12-07T09:08:10;15.73;;;12.93;;
60665;SDS011;59128;44.642;21.188;2022-12-07T09:10:36;12.60;;;10.95;;
60665;SDS011;59128;44.642;21.188;2022-12-07T09:13:02;13.38;;;11.90;;
60665;SDS011;59128;44.642;21.188;2022-12-07T09:15:28;19.60;;;14.88;;
60665;SDS011;59128;44.642;21.188;2022-12-07T09:17:55;21.50;;;16.40;;
60665;SDS011;59128;44.642;21.188;2022-12-07T09:20:21;18.50;;;14.32;;
60665;SDS011;59128;44.642;21.188;2022-12-07T09:22:48;21.37;;;16.70;;
60665;SDS011;59128;44.642;21.188;2022-12-07T09:25:14;23.70;;;20.20;;
60665;SDS011;59128;44.642;21.188;2022-12-07T09:27:40;20.08;;;16.13;;
60665;SDS011;59128;44.642;21.188;2022-12-07T09:30:07;28.15;;;23.40;;
60665;SDS011;59128;44.642;21.188;2022-12-07T09:32:33;25.77;;;21.38;;
60665;SDS011;59128;44.642;21.188;2022-12-07T09:34:59;28.95;;;23.80;;
60665;SDS011;59128;44.642;21.188;2022-12-07T09:37:25;34.38;;;27.60;;
60665;SDS011;59128;44.642;21.188;2022-12-07T09:39:51;33.20;;;25.60;;
60665;SDS011;59128;44.642;21.188;2022-12-07T09:44:49;28.23;;;22.73;;
60665;SDS011;59128;44.642;21.188;2022-12-07T09:47:16;29.65;;;23.75;;
60665;SDS011;59128;44.642;21.188;2022-12-07T09:49:42;32.55;;;24.52;;
60665;SDS011;59128;44.642;21.188;2022-12-07T09:54:35;17.65;;;14.70;;
60665;SDS011;59128;44.642;21.188;2022-12-07T09:57:02;13.95;;;12.48;;
60665;SDS011;59128;44.642;21.188;2022-12-07T09:59:28;19.70;;;16.10;;
60665;SDS011;59128;44.642;21.188;2022-12-07T10:01:55;23.57;;;18.80;;
60665;SDS011;59128;44.642;21.188;2022-12-07T10:04:22;26.73;;;20.27;;
60665;SDS011;59128;44.642;21.188;2022-12-07T10:06:49;25.55;;;18.88;;
60665;SDS011;59128;44.642;21.188;2022-12-07T10:09:16;23.58;;;18.30;;
60665;SDS011;59128;44.642;21.188;2022-12-07T10:14:28;21.48;;;17.95;;
60665;SDS011;59128;44.642;21.188;2022-12-07T10:16:54;29.25;;;23.77;;
60665;SDS011;59128;44.642;21.188;2022-12-07T10:19:28;25.85;;;19.33;;
60665;SDS011;59128;44.642;21.188;2022-12-07T10:22:11;20.63;;;16.10;;
60665;SDS011;59128;44.642;21.188;2022-12-07T10:24:38;15.73;;;13.13;;
60665;SDS011;59128;44.642;21.188;2022-12-07T10:27:16;17.13;;;14.48;;
60665;SDS011;59128;44.642;21.188;2022-12-07T10:29:46;19.40;;;16.37;;
60665;SDS011;59128;44.642;21.188;2022-12-07T10:34:42;18.33;;;15.02;;
60665;SDS011;59128;44.642;21.188;2022-12-07T10:42:09;20.25;;;16.70;;
60665;SDS011;59128;44.642;21.188;2022-12-07T10:44:41;41.67;;;36.03;;
60665;SDS011;59128;44.642;21.188;2022-12-07T10:52:22;23.77;;;20.88;;
60665;SDS011;59128;44.642;21.188;2022-12-07T10:55:05;73.55;;;51.70;;
60665;SDS011;59128;44.642;21.188;2022-12-07T11:00:03;32.90;;;26.65;;
60665;SDS011;59128;44.642;21.188;2022-12-07T11:18:37;14.93;;;12.73;;
60665;SDS011;59128;44.642;21.188;2022-12-07T11:24:01;24.88;;;20.50;;
60665;SDS011;59128;44.642;21.188;2022-12-07T11:37:16;62.05;;;41.47;;
60665;SDS011;59128;44.642;21.188;2022-12-07T11:39:48;49.15;;;35.13;;
60665;SDS011;59128;44.642;21.188;2022-12-07T11:42:20;30.13;;;26.23;;
60665;SDS011;59128;44.642;21.188;2022-12-07T11:44:58;24.40;;;20.02;;
60665;SDS011;59128;44.642;21.188;2022-12-07T11:50:25;30.92;;;24.83;;
60665;SDS011;59128;44.642;21.188;2022-12-07T11:52:57;18.73;;;15.80;;
60665;SDS011;59128;44.642;21.188;2022-12-07T11:55:26;14.65;;;13.02;;
60665;SDS011;59128;44.642;21.188;2022-12-07T11:58:00;25.83;;;20.45;;
60665;SDS011;59128;44.642;21.188;2022-12-07T12:00:29;26.35;;;20.10;;
60665;SDS011;59128;44.642;21.188;2022-12-07T12:05:21;24.15;;;20.20;;
60665;SDS011;59128;44.642;21.188;2022-12-07T12:07:51;25.35;;;21.02;;
60665;SDS011;59128;44.642;21.188;2022-12-07T12:23:45;37.10;;;31.35;;
60665;SDS011;59128;44.642;21.188;2022-12-07T12:26:17;43.97;;;35.40;;
60665;SDS011;59128;44.642;21.188;2022-12-07T12:33:46;97.20;;;60.90;;
60665;SDS011;59128;44.642;21.188;2022-12-07T12:46:52;41.30;;;36.67;;
60665;SDS011;59128;44.642;21.188;2022-12-07T12:51:52;54.73;;;47.50;;
60665;SDS011;59128;44.642;21.188;2022-12-07T12:54:25;40.08;;;33.75;;
60665;SDS011;59128;44.642;21.188;2022-12-07T12:56:54;31.83;;;26.95;;
60665;SDS011;59128;44.642;21.188;2022-12-07T13:01:56;29.37;;;24.07;;
60665;SDS011;59128;44.642;21.188;2022-12-07T13:07:47;30.17;;;24.88;;
60665;SDS011;59128;44.642;21.188;2022-12-07T13:10:03;27.17;;;22.38;;
60665;SDS011;59128;44.642;21.188;2022-12-07T13:12:30;36.08;;;27.42;;
60665;SDS011;59128;44.642;21.188;2022-12-07T13:14:57;84.63;;;59.97;;
60665;SDS011;59128;44.642;21.188;2022-12-07T13:19:57;59.23;;;44.83;;
60665;SDS011;59128;44.642;21.188;2022-12-07T13:24:57;87.18;;;66.28;;
60665;SDS011;59128;44.642;21.188;2022-12-07T13:27:26;81.75;;;61.53;;
60665;SDS011;59128;44.642;21.188;2022-12-07T13:29:53;82.95;;;48.17;;
60665;SDS011;59128;44.642;21.188;2022-12-07T13:32:23;40.25;;;25.75;;
60665;SDS011;59128;44.642;21.188;2022-12-07T13:34:50;32.88;;;22.20;;
60665;SDS011;59128;44.642;21.188;2022-12-07T13:39:52;38.55;;;25.92;;
60665;SDS011;59128;44.642;21.188;2022-12-07T13:42:28;30.88;;;21.98;;
60665;SDS011;59128;44.642;21.188;2022-12-07T13:44:55;29.00;;;21.88;;
60665;SDS011;59128;44.642;21.188;2022-12-07T13:47:32;106.63;;;66.85;;
60665;SDS011;59128;44.642;21.188;2022-12-07T13:50:21;43.40;;;30.45;;
60665;SDS011;59128;44.642;21.188;2022-12-07T13:52:54;30.15;;;22.15;;
60665;SDS011;59128;44.642;21.188;2022-12-07T13:55:21;31.33;;;22.10;;
60665;SDS011;59128;44.642;21.188;2022-12-07T13:57:48;29.77;;;21.35;;
60665;SDS011;59128;44.642;21.188;2022-12-07T14:00:22;20.73;;;17.33;;
60665;SDS011;59128;44.642;21.188;2022-12-07T14:05:28;47.45;;;36.05;;
60665;SDS011;59128;44.642;21.188;2022-12-07T14:07:55;32.50;;;27.10;;
60665;SDS011;59128;44.642;21.188;2022-12-07T14:10:23;28.50;;;23.25;;
60665;SDS011;59128;44.642;21.188;2022-12-07T14:12:49;18.88;;;16.83;;
60665;SDS011;59128;44.642;21.188;2022-12-07T14:15:20;15.68;;;14.02;;
60665;SDS011;59128;44.642;21.188;2022-12-07T14:17:50;19.08;;;16.63;;
60665;SDS011;59128;44.642;21.188;2022-12-07T14:23:02;42.15;;;33.85;;
60665;SDS011;59128;44.642;21.188;2022-12-07T14:26:03;22.63;;;19.55;;
60665;SDS011;59128;44.642;21.188;2022-12-07T14:28:30;24.67;;;20.45;;
60665;SDS011;59128;44.642;21.188;2022-12-07T14:30:57;32.97;;;26.08;;
60665;SDS011;59128;44.642;21.188;2022-12-07T14:33:23;37.53;;;29.30;;
60665;SDS011;59128;44.642;21.188;2022-12-07T14:35:50;38.17;;;30.58;;
60665;SDS011;59128;44.642;21.188;2022-12-07T14:38:25;38.00;;;30.85;;
60665;SDS011;59128;44.642;21.188;2022-12-07T14:40:51;36.80;;;30.13;;
60665;SDS011;59128;44.642;21.188;2022-12-07T14:43:18;37.67;;;31.17;;
60665;SDS011;59128;44.642;21.188;2022-12-07T14:45:44;47.25;;;36.92;;
60665;SDS011;59128;44.642;21.188;2022-12-07T14:48:11;48.70;;;38.47;;
60665;SDS011;59128;44.642;21.188;2022-12-07T14:50:42;46.03;;;35.28;;
60665;SDS011;59128;44.642;21.188;2022-12-07T14:53:13;51.13;;;39.53;;
60665;SDS011;59128;44.642;21.188;2022-12-07T14:55:39;44.97;;;33.65;;
60665;SDS011;59128;44.642;21.188;2022-12-07T14:58:05;34.30;;;27.50;;
60665;SDS011;59128;44.642;21.188;2022-12-07T15:00:32;28.23;;;23.08;;
60665;SDS011;59128;44.642;21.188;2022-12-07T15:02:59;25.60;;;19.90;;
60665;SDS011;59128;44.642;21.188;2022-12-07T15:05:25;21.20;;;17.30;;
60665;SDS011;59128;44.642;21.188;2022-12-07T15:07:51;24.65;;;18.58;;
60665;SDS011;59128;44.642;21.188;2022-12-07T15:10:38;21.80;;;17.33;;
60665;SDS011;59128;44.642;21.188;2022-12-07T15:13:05;28.88;;;20.88;;
60665;SDS011;59128;44.642;21.188;2022-12-07T15:15:51;30.48;;;22.95;;
60665;SDS011;59128;44.642;21.188;2022-12-07T15:18:17;34.22;;;24.70;;
60665;SDS011;59128;44.642;21.188;2022-12-07T15:20:44;43.58;;;31.05;;
60665;SDS011;59128;44.642;21.188;2022-12-07T15:23:11;55.63;;;39.03;;
60665;SDS011;59128;44.642;21.188;2022-12-07T15:25:40;46.17;;;34.60;;
60665;SDS011;59128;44.642;21.188;2022-12-07T15:28:06;42.42;;;30.42;;
60665;SDS011;59128;44.642;21.188;2022-12-07T15:30:32;44.72;;;31.65;;
60665;SDS011;59128;44.642;21.188;2022-12-07T15:32:59;47.85;;;33.15;;
60665;SDS011;59128;44.642;21.188;2022-12-07T15:35:26;46.53;;;31.57;;
60665;SDS011;59128;44.642;21.188;2022-12-07T15:37:52;47.70;;;32.35;;
60665;SDS011;59128;44.642;21.188;2022-12-07T15:40:18;44.90;;;32.15;;
60665;SDS011;59128;44.642;21.188;2022-12-07T15:42:44;43.70;;;31.40;;
60665;SDS011;59128;44.642;21.188;2022-12-07T15:45:10;38.72;;;28.33;;
60665;SDS011;59128;44.642;21.188;2022-12-07T15:47:39;25.73;;;19.07;;
60665;SDS011;59128;44.642;21.188;2022-12-07T15:50:06;20.08;;;15.30;;
60665;SDS011;59128;44.642;21.188;2022-12-07T15:52:33;17.92;;;13.35;;
60665;SDS011;59128;44.642;21.188;2022-12-07T15:54:59;17.57;;;12.67;;
60665;SDS011;59128;44.642;21.188;2022-12-07T15:57:27;14.77;;;11.10;;
60665;SDS011;59128;44.642;21.188;2022-12-07T15:59:53;18.15;;;12.63;;
60665;SDS011;59128;44.642;21.188;2022-12-07T16:02:19;20.10;;;14.15;;
60665;SDS011;59128;44.642;21.188;2022-12-07T16:04:45;20.15;;;13.65;;
60665;SDS011;59128;44.642;21.188;2022-12-07T16:07:12;18.45;;;12.98;;
60665;SDS011;59128;44.642;21.188;2022-12-07T16:09:40;18.90;;;13.40;;
60665;SDS011;59128;44.642;21.188;2022-12-07T16:12:10;18.85;;;13.60;;
60665;SDS011;59128;44.642;21.188;2022-12-07T16:14:39;21.30;;;14.32;;
60665;SDS011;59128;44.642;21.188;2022-12-07T16:17:07;20.10;;;13.73;;
60665;SDS011;59128;44.642;21.188;2022-12-07T16:19:33;19.23;;;13.18;;
60665;SDS011;59128;44.642;21.188;2022-12-07T16:21:59;17.20;;;11.95;;
60665;SDS011;59128;44.642;21.188;2022-12-07T16:24:26;17.65;;;12.40;;
60665;SDS011;59128;44.642;21.188;2022-12-07T16:26:52;17.60;;;13.00;;
60665;SDS011;59128;44.642;21.188;2022-12-07T16:29:18;20.88;;;14.82;;
60665;SDS011;59128;44.642;21.188;2022-12-07T16:31:45;25.27;;;17.52;;
60665;SDS011;59128;44.642;21.188;2022-12-07T16:34:11;24.83;;;18.10;;
60665;SDS011;59128;44.642;21.188;2022-12-07T16:36:37;20.95;;;15.57;;
60665;SDS011;59128;44.642;21.188;2022-12-07T16:39:03;22.27;;;16.40;;
60665;SDS011;59128;44.642;21.188;2022-12-07T16:41:30;32.88;;;25.08;;